Norris Rancho Marino Reserve, California Weather observations

Data are for 10 minute period ending at time listed.
 Day   Time   Solar   Ave.   Ave.  Ave.  Vector  Max.   Baro.   Total    
  of    of     Rad.   Air    Rel.  Wind   Wind   Wind  Press.  Precip.   
Year   Day            Temp.  Hum.  Speed  Dir.   Gust                    
2017   (PST)  Kw/m2    F      %     mph   deg.    mph    mb.     in.     
-------------------------------------------------------------------------
 146   11:30   0.94   60.1    78    4.3   232     5.8   1013.5    0.00 
 146   11:40   0.98   59.4    77    5.2   233     6.4   1013.6    0.00 
 146   11:50   0.78   59.3    77    5.3   238     6.5   1013.7    0.00 
 146   12:00   1.00   59.3    78    5.4   239     6.8   1013.7    0.00 
 146   12:10   0.97   60.6    75    5.5   243     6.9   1013.9    0.00 
 146   12:20   0.97   60.5    74    5.6   242     6.9   1014.0    0.00 
 146   12:30   0.97   61.7    72    5.3   249     7.2   1014.0    0.00 
 146   12:40   0.97   61.6    70    5.7   242     7.2   1014.0    0.00 
 146   12:50   0.98   60.4    73    5.9   238     7.2   1014.0    0.00 
 146   13:00   0.91   61.2    73    5.5   240     7.2   1014.0    0.00 
 146   13:10   0.94   61.0    73    5.5   238     6.9   1014.0    0.00 
 146   13:20   0.93   60.4    74    5.0   233     6.4   1014.0    0.00 
 146   13:30   0.92   60.6    73    4.5   233     5.3   1013.9    0.00 
 146   13:40   0.91   61.5    72    5.0   235     6.8   1013.8    0.00 
 146   13:50   0.81   61.4    71    5.3   234     7.1   1013.8    0.00 
 146   14:00   0.77   61.8    71    4.9   237     6.9   1013.8    0.00 
 146   14:10   0.74   62.1    70    4.8   250     6.8   1013.7    0.00 
 146   14:20   0.84   60.8    72    5.9   260     7.5   1013.7    0.00 
 146   14:30   0.82   60.7    71    6.2   262     8.8   1013.6    0.00 
 146   14:40   0.80   61.4    71    6.5   267     8.2   1013.6    0.00 
 146   14:50   0.77   61.2    71    7.2   274     8.8   1013.5    0.00 
 146   15:00   0.75   61.2    72    7.0   269     9.4   1013.5    0.00 
 146   15:10   0.72   61.5    72    5.9   272     7.9   1013.5    0.00 
 146   15:20   0.70   60.9    73    6.4   275     8.0   1013.5    0.00 
 146   15:30   0.67   60.9    76    6.8   276     8.8   1013.5    0.00 
 146   15:40   0.64   60.7    77    7.0   280     9.2   1013.4    0.00 
 146   15:50   0.61   60.6    77    6.8   280     8.7   1013.4    0.00 
 146   16:00   0.58   60.7    77    6.8   274     9.1   1013.3    0.00 
 146   16:10   0.55   60.1    79    7.0   274     9.2   1013.3    0.00 
 146   16:20   0.52   59.8    79    7.1   274     8.8   1013.4    0.00 
 146   16:30   0.49   60.4    77    5.9   274     8.3   1013.4    0.00 
 146   16:40   0.45   60.3    77    5.8   274     8.3   1013.4    0.00 
 146   16:50   0.42   60.2    76    5.5   277     7.8   1013.4    0.00 
 146   17:00   0.39   59.9    77    5.0   283     6.9   1013.5    0.00 
 146   17:10   0.35   59.9    77    5.3   284     7.2   1013.5    0.00 
 146   17:20   0.32   59.2    79    5.6   289     7.3   1013.6    0.00 
 146   17:30   0.29   59.0    79    6.9   290     8.4   1013.6    0.00 
 146   17:40   0.25   58.9    79    7.1   289     9.1   1013.7    0.00 
 146   17:50   0.22   59.0    79    6.3   291     8.6   1013.7    0.00 
 146   18:00   0.19   58.7    79    6.5   296     8.4   1013.7    0.00 
 146   18:10   0.16   58.4    79    7.2   294     9.5   1013.5    0.00 
 146   18:20   0.13   58.0    79    7.5   295     9.7   1013.5    0.00 
 146   18:30   0.10   57.6    80    7.8   296    10.3   1013.4    0.00 
 146   18:40   0.08   57.0    82    7.2   295    10.1   1013.4    0.00 
 146   18:50   0.05   56.4    86    7.0   296     9.2   1013.3    0.00 
 146   19:00   0.03   55.7    87    7.1   307    11.0   1013.3    0.00 
 146   19:10   0.01   55.1    89    7.7   310    11.1   1013.2    0.00 
 146   19:20   0.01   54.7    90    7.0   313     9.6   1013.1    0.00 
 146   19:30   0.00   54.3    91    5.8   316     7.7   1013.1    0.00 
 146   19:40   0.00   54.1    91    5.1   317     8.3   1013.1    0.00 
 146   19:50   0.00   54.0    91    5.0   316     8.8   1013.2    0.00 
 146   20:00   0.00   53.8    92    5.0   316     7.7   1013.2    0.00 
 146   20:10   0.00   53.8    92    4.7   322     7.0   1013.3    0.00 
 146   20:20   0.00   53.5    92    3.9   323     6.1   1013.3    0.00 
 146   20:30   0.00   53.4    93    3.0   330     5.3   1013.3    0.00 
 146   20:40   0.00   52.8    93    1.2   358     2.0   1013.4    0.00 
 146   20:50   0.00   52.3    92    1.6   358     2.5   1013.5    0.00 
 146   21:00   0.00   51.8    92    2.2   354     3.4   1013.6    0.00 
 146   21:10   0.00   51.0    92    2.0    19     2.9   1013.6    0.00 
 146   21:20   0.00   50.7    92    2.5    21     3.4   1013.7    0.00 
 146   21:30   0.00   51.0    93    3.1   359     4.5   1013.8    0.00 
 146   21:40   0.00   51.5    92    3.7     3     5.0   1013.9    0.00 
 146   21:50   0.00   51.7    91    3.7   360     5.0   1014.0    0.00 
 146   22:00   0.00   51.4    91    3.8   352     5.0   1013.9    0.00 
 146   22:10   0.00   51.4    91    3.3   354     5.1   1013.8    0.00 
 146   22:20   0.00   51.6    91    3.0   357     4.6   1013.9    0.00 
 146   22:30   0.00   51.3    91    3.0   358     4.5   1013.9    0.00 
 146   22:40   0.00   51.0    91    2.6     4     3.8   1013.9    0.00 
 146   22:50   0.00   50.7    92    2.5   356     3.4   1013.9    0.00 
 146   23:00   0.00   50.6    92    2.8   360     3.9   1013.9    0.00 
 146   23:10   0.00   50.2    92    2.8     1     3.8   1014.0    0.00 
 146   23:20   0.00   49.8    93    2.6    13     3.4   1013.9    0.00 
 146   23:30   0.00   49.4    93    2.5    16     3.1   1013.9    0.00 
 146   23:40   0.00   49.5    94    2.9    31     4.0   1013.9    0.00 
 146   23:50   0.00   49.0    94    4.1    44     4.5   1013.9    0.00 
 147    0:00   0.00   49.0    94    3.2    42     4.6   1013.9    0.00 
 147    0:10   0.00   49.2    94    2.2    36     3.1   1014.1    0.00 
 147    0:20   0.00   48.9    95    2.4    40     3.7   1014.1    0.00 
 147    0:30   0.00   49.1    95    2.1    41     3.9   1014.1    0.00 
 147    0:40   0.00   49.0    95    2.0    53     3.2   1014.1    0.00 
 147    0:50   0.00   48.8    95    2.1    59     3.4   1014.2    0.00 
 147    1:00   0.00   48.8    95    2.5    57     3.6   1014.2    0.00 
 147    1:10   0.00   48.9    95    2.3    41     3.4   1014.0    0.00 
 147    1:20   0.00   48.7    95    2.9    37     3.8   1014.0    0.00 
 147    1:30   0.00   48.5    95    3.2    40     4.6   1014.0    0.00 
 147    1:40   0.00   48.3    96    3.6    39     4.8   1013.9    0.00 
 147    1:50   0.00   48.1    96    3.4    37     3.9   1013.9    0.00 
 147    2:00   0.00   48.8    96    3.2    42     4.2   1013.9    0.00 
 147    2:10   0.00   48.4    96    1.9    40     3.0   1013.9    0.00 
 147    2:20   0.00   48.5    96    2.1    38     3.6   1014.0    0.00 
 147    2:30   0.00   48.4    96    2.4    39     3.4   1013.9    0.00 
 147    2:40   0.00   48.7    96    1.4    36     2.7   1014.0    0.00 
 147    2:50   0.00   48.6    96    1.9    36     3.4   1013.9    0.00 
 147    3:00   0.00   48.6    96    1.5    29     2.6   1013.9    0.00 
 147    3:10   0.00   48.6    96    1.6    34     2.6   1013.9    0.00 
 147    3:20   0.00   48.3    96    1.7    44     2.9   1013.9    0.00 
 147    3:30   0.00   48.3    96    1.4    35     2.5   1014.0    0.00 
 147    3:40   0.00   48.2    96    1.8    37     3.0   1014.0    0.00 
 147    3:50   0.00   48.0    96    1.9    35     3.0   1014.0    0.00 
 147    4:00   0.00   48.4    96    1.9    32     3.1   1014.0    0.00 
 147    4:10   0.00   48.3    96    1.9    34     3.6   1014.0    0.00 
 147    4:20   0.00   48.3    96    1.9    38     4.1   1014.0    0.00 
 147    4:30   0.00   48.1    96    1.9    15     3.1   1014.2    0.00 
 147    4:40   0.00   48.4    96    1.5    14     2.2   1014.3    0.00 
 147    4:50   0.01   47.9    96    1.8    36     2.8   1014.4    0.00 
 147    5:00   0.01   47.8    96    2.1    22     3.3   1014.4    0.00 
 147    5:10   0.01   47.9    96    2.5     8     3.8   1014.6    0.00 
 147    5:20   0.03   48.8    96    3.6   350     5.2   1014.6    0.00 
 147    5:30   0.03   49.6    95    4.0   351     5.5   1014.6    0.00 
 147    5:40   0.03   49.5    94    2.7     4     4.2   1014.7    0.00 
 147    5:50   0.03   49.5    94    2.7   346     4.3   1014.8    0.00 
 147    6:00   0.08   49.7    94    2.7   342     4.4   1014.8    0.00 
 147    6:10   0.15   50.0    94    1.8   355     3.1   1014.8    0.00 
 147    6:20   0.18   51.0    93    1.2     5     2.4   1014.8    0.00 
 147    6:30   0.21   52.4    92    0.5     4     1.7   1014.9    0.00 
 147    6:40   0.24   53.8    90    0.9   352     2.2   1015.2    0.00 
 147    6:50   0.28   54.5    89    2.2   280     4.2   1015.5    0.00 
 147    7:00   0.31   54.6    87    4.5   286     6.7   1015.8    0.00 
 147    7:10   0.34   54.7    86    5.5   285     6.9   1015.9    0.00 
 147    7:20   0.37   54.7    86    5.7   282     7.2   1016.0    0.00 
 147    7:30   0.41   54.6    85    5.6   283     7.2   1016.2    0.00 
 147    7:40   0.44   55.2    85    5.1   287     8.5   1016.2    0.00 
 147    7:50   0.47   55.1    84    5.9   281     7.8   1016.4    0.00 
 147    8:00   0.50   55.1    84    5.3   278     7.7   1016.5    0.00 
 147    8:10   0.53   55.5    84    4.9   284     7.2   1016.5    0.00 
 147    8:20   0.56   55.5    84    5.2   280     7.2   1016.5    0.00 
 147    8:30   0.59   56.4    83    5.5   287     8.4   1016.7    0.00 
 147    8:40   0.62   56.7    82    4.8   287     7.2   1016.8    0.00 
 147    8:50   0.65   57.0    80    4.7   282     8.3   1016.8    0.00 
 147    9:00   0.68   57.8    78    6.7   288    12.1   1016.8    0.00 
 147    9:10   0.70   58.4    76    8.8   289    12.4   1016.8    0.00 
 147    9:20   0.73   58.7    76    9.9   291    13.4   1016.7    0.00 
 147    9:30   0.75   59.2    75   10.9   293    14.8   1016.7    0.00 
 147    9:40   0.78   59.3    75   11.1   291    14.6   1016.7    0.00 
 147    9:50   0.80   59.1    75   11.7   294    16.5   1016.7    0.00 
 147   10:00   0.82   59.1    75   12.3   292    15.6   1016.7    0.00 
 147   10:10   0.84   59.7    74   11.7   292    15.1   1016.6    0.00 
 147   10:20   0.86   59.7    74   12.6   294    17.3   1016.7    0.00 
 147   10:30   0.87   59.3    74   14.2   293    17.5   1016.7    0.00 
 147   10:40   0.89   59.2    74   13.6   294    17.2   1016.7    0.00 
 147   10:50   0.90   59.4    74   13.7   294    17.8   1016.8    0.00 
 147   11:00   0.91   59.6    74   13.0   294    15.7   1016.8    0.00 
 147   11:10   0.92   59.7    74   13.3   292    16.8   1016.7    0.00 
 147   11:20   0.93   59.4    74   13.7   293    16.9   1016.6    0.00 

Return to Norris Rancho Marino Reserve graphs page.


Western Regional Climate Center,wrcc@dri.edu